sensor_id;sensor_type;location;lat;lon;timestamp;temperature;humidity
75010;DHT22;63564;46.840;18.336;2023-04-25T00:01:15;10.68;95.64
75010;DHT22;63564;46.840;18.336;2023-04-25T00:04:16;10.73;95.55
75010;DHT22;63564;46.840;18.336;2023-04-25T00:07:16;10.73;95.44
75010;DHT22;63564;46.840;18.336;2023-04-25T00:10:18;10.72;96.57
75010;DHT22;63564;46.840;18.336;2023-04-25T00:13:19;10.60;96.22
75010;DHT22;63564;46.840;18.336;2023-04-25T00:16:20;10.68;95.64
75010;DHT22;63564;46.840;18.336;2023-04-25T00:19:20;10.72;95.16
75010;DHT22;63564;46.840;18.336;2023-04-25T00:22:21;10.68;94.54
75010;DHT22;63564;46.840;18.336;2023-04-25T00:25:21;10.72;94.80
75010;DHT22;63564;46.840;18.336;2023-04-25T00:28:22;10.71;93.29
75010;DHT22;63564;46.840;18.336;2023-04-25T00:31:22;10.76;93.69
75010;DHT22;63564;46.840;18.336;2023-04-25T00:34:22;10.73;93.54
75010;DHT22;63564;46.840;18.336;2023-04-25T00:37:23;10.62;93.58
75010;DHT22;63564;46.840;18.336;2023-04-25T00:40:23;10.67;92.99
75010;DHT22;63564;46.840;18.336;2023-04-25T00:43:26;10.71;92.11
75010;DHT22;63564;46.840;18.336;2023-04-25T00:46:26;10.65;91.13
75010;DHT22;63564;46.840;18.336;2023-04-25T00:49:26;10.60;91.99
75010;DHT22;63564;46.840;18.336;2023-04-25T00:52:27;10.60;92.43
75010;DHT22;63564;46.840;18.336;2023-04-25T00:55:27;10.57;91.49
75010;DHT22;63564;46.840;18.336;2023-04-25T00:58:28;10.48;92.20
75010;DHT22;63564;46.840;18.336;2023-04-25T01:01:28;10.48;91.30
75010;DHT22;63564;46.840;18.336;2023-04-25T01:04:29;10.45;91.48
75010;DHT22;63564;46.840;18.336;2023-04-25T01:07:29;10.48;90.83
75010;DHT22;63564;46.840;18.336;2023-04-25T01:10:30;10.45;90.92
75010;DHT22;63564;46.840;18.336;2023-04-25T01:13:31;10.40;91.66
75010;DHT22;63564;46.840;18.336;2023-04-25T01:16:32;10.37;91.38
75010;DHT22;63564;46.840;18.336;2023-04-25T01:19:33;10.52;90.13
75010;DHT22;63564;46.840;18.336;2023-04-25T01:22:33;10.51;89.56
75010;DHT22;63564;46.840;18.336;2023-04-25T01:25:34;10.44;90.38
75010;DHT22;63564;46.840;18.336;2023-04-25T01:28:35;10.47;88.80
75010;DHT22;63564;46.840;18.336;2023-04-25T01:31:36;10.48;89.19
75010;DHT22;63564;46.840;18.336;2023-04-25T01:34:37;10.57;87.10
75010;DHT22;63564;46.840;18.336;2023-04-25T01:37:41;10.58;86.80
75010;DHT22;63564;46.840;18.336;2023-04-25T01:40:44;10.55;87.93
75010;DHT22;63564;46.840;18.336;2023-04-25T01:43:45;10.52;87.51
75010;DHT22;63564;46.840;18.336;2023-04-25T01:46:45;10.67;86.42
75010;DHT22;63564;46.840;18.336;2023-04-25T01:49:46;10.65;86.27
75010;DHT22;63564;46.840;18.336;2023-04-25T01:52:46;10.62;85.91
75010;DHT22;63564;46.840;18.336;2023-04-25T01:55:47;10.73;83.69
75010;DHT22;63564;46.840;18.336;2023-04-25T01:58:48;10.62;86.08
75010;DHT22;63564;46.840;18.336;2023-04-25T02:01:48;10.58;86.18
75010;DHT22;63564;46.840;18.336;2023-04-25T02:04:49;10.65;84.73
75010;DHT22;63564;46.840;18.336;2023-04-25T02:07:49;10.72;84.09
75010;DHT22;63564;46.840;18.336;2023-04-25T02:10:49;10.73;84.58
75010;DHT22;63564;46.840;18.336;2023-04-25T02:13:50;10.71;84.59
75010;DHT22;63564;46.840;18.336;2023-04-25T02:16:50;10.75;83.20
75010;DHT22;63564;46.840;18.336;2023-04-25T02:19:51;10.73;83.23
75010;DHT22;63564;46.840;18.336;2023-04-25T02:22:51;10.67;83.80
75010;DHT22;63564;46.840;18.336;2023-04-25T02:25:52;10.62;83.84
75010;DHT22;63564;46.840;18.336;2023-04-25T02:28:53;10.68;83.62
75010;DHT22;63564;46.840;18.336;2023-04-25T02:31:53;10.68;82.44
75010;DHT22;63564;46.840;18.336;2023-04-25T02:34:53;10.72;82.79
75010;DHT22;63564;46.840;18.336;2023-04-25T02:37:54;10.75;82.09
75010;DHT22;63564;46.840;18.336;2023-04-25T02:40:54;10.72;81.99
75010;DHT22;63564;46.840;18.336;2023-04-25T02:43:55;10.73;81.78
75010;DHT22;63564;46.840;18.336;2023-04-25T02:46:55;10.73;82.21
75010;DHT22;63564;46.840;18.336;2023-04-25T02:49:55;10.76;81.15
75010;DHT22;63564;46.840;18.336;2023-04-25T02:52:56;10.78;81.27
75010;DHT22;63564;46.840;18.336;2023-04-25T02:55:56;10.82;78.07
75010;DHT22;63564;46.840;18.336;2023-04-25T02:58:58;10.81;79.35
75010;DHT22;63564;46.840;18.336;2023-04-25T03:01:58;10.72;81.06
75010;DHT22;63564;46.840;18.336;2023-04-25T03:04:59;10.76;80.44
75010;DHT22;63564;46.840;18.336;2023-04-25T03:07:59;10.75;80.14
75010;DHT22;63564;46.840;18.336;2023-04-25T03:11:00;10.75;79.64
75010;DHT22;63564;46.840;18.336;2023-04-25T03:14:00;10.72;80.63
75010;DHT22;63564;46.840;18.336;2023-04-25T03:17:01;10.73;80.61
75010;DHT22;63564;46.840;18.336;2023-04-25T03:20:01;10.69;80.01
75010;DHT22;63564;46.840;18.336;2023-04-25T03:23:05;10.68;81.12
75010;DHT22;63564;46.840;18.336;2023-04-25T03:26:05;10.54;81.69
75010;DHT22;63564;46.840;18.336;2023-04-25T03:29:06;10.52;82.32
75010;DHT22;63564;46.840;18.336;2023-04-25T03:32:06;10.50;80.81
75010;DHT22;63564;46.840;18.336;2023-04-25T03:35:07;10.48;82.60
75010;DHT22;63564;46.840;18.336;2023-04-25T03:38:08;10.51;81.21
75010;DHT22;63564;46.840;18.336;2023-04-25T03:41:08;10.55;81.11
75010;DHT22;63564;46.840;18.336;2023-04-25T03:44:09;10.47;81.47
75010;DHT22;63564;46.840;18.336;2023-04-25T03:47:09;10.47;81.80
75010;DHT22;63564;46.840;18.336;2023-04-25T03:50:09;10.48;82.07
75010;DHT22;63564;46.840;18.336;2023-04-25T03:53:10;10.47;82.49
75010;DHT22;63564;46.840;18.336;2023-04-25T03:56:10;10.45;81.19
75010;DHT22;63564;46.840;18.336;2023-04-25T03:59:11;10.45;81.91
75010;DHT22;63564;46.840;18.336;2023-04-25T04:02:11;10.43;82.39
75010;DHT22;63564;46.840;18.336;2023-04-25T04:05:11;10.44;82.11
75010;DHT22;63564;46.840;18.336;2023-04-25T04:08:12;10.38;82.38
75010;DHT22;63564;46.840;18.336;2023-04-25T04:11:13;10.31;83.09
75010;DHT22;63564;46.840;18.336;2023-04-25T04:14:13;10.40;81.99
75010;DHT22;63564;46.840;18.336;2023-04-25T04:17:13;10.43;82.04
75010;DHT22;63564;46.840;18.336;2023-04-25T04:20:14;10.37;82.37
75010;DHT22;63564;46.840;18.336;2023-04-25T04:23:14;10.38;81.88
75010;DHT22;63564;46.840;18.336;2023-04-25T04:26:15;10.40;82.08
75010;DHT22;63564;46.840;18.336;2023-04-25T04:29:18;10.45;80.91
75010;DHT22;63564;46.840;18.336;2023-04-25T04:32:21;10.43;80.80
75010;DHT22;63564;46.840;18.336;2023-04-25T04:35:23;10.44;82.04
75010;DHT22;63564;46.840;18.336;2023-04-25T04:38:24;10.57;79.98
75010;DHT22;63564;46.840;18.336;2023-04-25T04:41:25;10.62;80.65
75010;DHT22;63564;46.840;18.336;2023-04-25T04:44:26;10.65;79.78
75010;DHT22;63564;46.840;18.336;2023-04-25T04:47:26;10.65;79.60
75010;DHT22;63564;46.840;18.336;2023-04-25T04:50:30;10.73;78.79
75010;DHT22;63564;46.840;18.336;2023-04-25T04:53:32;10.73;79.49
75010;DHT22;63564;46.840;18.336;2023-04-25T04:56:33;10.68;79.53
75010;DHT22;63564;46.840;18.336;2023-04-25T04:59:33;10.75;79.73
75010;DHT22;63564;46.840;18.336;2023-04-25T05:02:33;10.72;79.01
75010;DHT22;63564;46.840;18.336;2023-04-25T05:05:34;10.73;79.40
75010;DHT22;63564;46.840;18.336;2023-04-25T05:08:34;10.71;79.49
75010;DHT22;63564;46.840;18.336;2023-04-25T05:11:34;10.88;78.92
75010;DHT22;63564;46.840;18.336;2023-04-25T05:14:35;10.79;78.58
75010;DHT22;63564;46.840;18.336;2023-04-25T05:17:35;10.79;77.36
75010;DHT22;63564;46.840;18.336;2023-04-25T05:20:36;10.85;79.14
75010;DHT22;63564;46.840;18.336;2023-04-25T05:23:36;10.85;79.26
75010;DHT22;63564;46.840;18.336;2023-04-25T05:26:37;10.83;77.97
75010;DHT22;63564;46.840;18.336;2023-04-25T05:29:38;10.93;77.68
75010;DHT22;63564;46.840;18.336;2023-04-25T05:32:38;11.00;77.78
75010;DHT22;63564;46.840;18.336;2023-04-25T05:35:38;11.02;77.43
75010;DHT22;63564;46.840;18.336;2023-04-25T05:38:39;11.06;77.34
75010;DHT22;63564;46.840;18.336;2023-04-25T05:41:39;11.24;76.09
75010;DHT22;63564;46.840;18.336;2023-04-25T05:44:40;11.27;76.71
75010;DHT22;63564;46.840;18.336;2023-04-25T05:47:40;11.22;76.98
75010;DHT22;63564;46.840;18.336;2023-04-25T05:50:41;11.38;76.30
75010;DHT22;63564;46.840;18.336;2023-04-25T05:53:41;11.27;74.37
75010;DHT22;63564;46.840;18.336;2023-04-25T05:56:41;11.38;74.66
75010;DHT22;63564;46.840;18.336;2023-04-25T05:59:42;11.51;73.44
75010;DHT22;63564;46.840;18.336;2023-04-25T06:02:42;11.55;75.00
75010;DHT22;63564;46.840;18.336;2023-04-25T06:05:43;11.55;75.46
75010;DHT22;63564;46.840;18.336;2023-04-25T06:08:43;11.48;74.33
75010;DHT22;63564;46.840;18.336;2023-04-25T06:11:44;11.51;74.82
75010;DHT22;63564;46.840;18.336;2023-04-25T06:14:45;11.77;75.14
75010;DHT22;63564;46.840;18.336;2023-04-25T06:17:45;11.85;74.61
75010;DHT22;63564;46.840;18.336;2023-04-25T06:20:46;11.86;74.19
75010;DHT22;63564;46.840;18.336;2023-04-25T06:23:46;11.81;74.96
75010;DHT22;63564;46.840;18.336;2023-04-25T06:26:46;11.73;76.16
75010;DHT22;63564;46.840;18.336;2023-04-25T06:29:47;11.82;73.33
75010;DHT22;63564;46.840;18.336;2023-04-25T06:32:48;11.74;74.85
75010;DHT22;63564;46.840;18.336;2023-04-25T06:35:48;11.98;74.35
75010;DHT22;63564;46.840;18.336;2023-04-25T06:38:48;11.78;75.40
75010;DHT22;63564;46.840;18.336;2023-04-25T06:41:49;11.89;75.44
75010;DHT22;63564;46.840;18.336;2023-04-25T06:44:49;11.98;73.56
75010;DHT22;63564;46.840;18.336;2023-04-25T06:47:50;12.13;74.25
75010;DHT22;63564;46.840;18.336;2023-04-25T06:50:50;12.03;73.63
75010;DHT22;63564;46.840;18.336;2023-04-25T06:53:51;12.36;72.41
75010;DHT22;63564;46.840;18.336;2023-04-25T06:56:51;12.43;72.19
75010;DHT22;63564;46.840;18.336;2023-04-25T06:59:52;12.47;71.48
75010;DHT22;63564;46.840;18.336;2023-04-25T07:02:52;12.63;72.10
75010;DHT22;63564;46.840;18.336;2023-04-25T07:05:52;12.56;72.46
75010;DHT22;63564;46.840;18.336;2023-04-25T07:08:53;12.68;70.69
75010;DHT22;63564;46.840;18.336;2023-04-25T07:11:54;12.77;72.70
75010;DHT22;63564;46.840;18.336;2023-04-25T07:14:54;12.43;71.71
75010;DHT22;63564;46.840;18.336;2023-04-25T07:17:55;12.67;70.28
75010;DHT22;63564;46.840;18.336;2023-04-25T07:20:55;12.85;68.72
75010;DHT22;63564;46.840;18.336;2023-04-25T07:23:55;12.64;70.88
75010;DHT22;63564;46.840;18.336;2023-04-25T07:26:56;12.74;71.53
75010;DHT22;63564;46.840;18.336;2023-04-25T07:29:56;12.71;69.59
75010;DHT22;63564;46.840;18.336;2023-04-25T07:32:57;12.71;71.71
75010;DHT22;63564;46.840;18.336;2023-04-25T07:35:58;13.26;69.56
75010;DHT22;63564;46.840;18.336;2023-04-25T07:38:58;13.15;69.35
75010;DHT22;63564;46.840;18.336;2023-04-25T07:41:58;13.08;67.51
75010;DHT22;63564;46.840;18.336;2023-04-25T07:45:00;13.54;68.16
75010;DHT22;63564;46.840;18.336;2023-04-25T07:48:00;13.70;67.78
75010;DHT22;63564;46.840;18.336;2023-04-25T07:51:00;13.56;67.89
75010;DHT22;63564;46.840;18.336;2023-04-25T07:54:01;13.87;66.37
75010;DHT22;63564;46.840;18.336;2023-04-25T07:57:01;14.02;67.21
75010;DHT22;63564;46.840;18.336;2023-04-25T08:00:02;14.08;68.01
75010;DHT22;63564;46.840;18.336;2023-04-25T08:03:03;13.95;65.76
75010;DHT22;63564;46.840;18.336;2023-04-25T08:06:03;13.88;66.62
75010;DHT22;63564;46.840;18.336;2023-04-25T08:09:04;13.71;67.11
75010;DHT22;63564;46.840;18.336;2023-04-25T08:12:04;13.85;66.26
75010;DHT22;63564;46.840;18.336;2023-04-25T08:15:05;13.49;67.39
75010;DHT22;63564;46.840;18.336;2023-04-25T08:18:06;13.33;67.64
75010;DHT22;63564;46.840;18.336;2023-04-25T08:21:06;13.19;67.22
75010;DHT22;63564;46.840;18.336;2023-04-25T08:24:08;13.29;68.98
75010;DHT22;63564;46.840;18.336;2023-04-25T08:27:09;13.25;68.32
75010;DHT22;63564;46.840;18.336;2023-04-25T08:30:10;13.30;68.03
75010;DHT22;63564;46.840;18.336;2023-04-25T08:33:10;13.19;68.33
75010;DHT22;63564;46.840;18.336;2023-04-25T08:36:11;13.20;67.98
75010;DHT22;63564;46.840;18.336;2023-04-25T08:39:11;13.15;67.53
75010;DHT22;63564;46.840;18.336;2023-04-25T08:42:14;13.53;67.37
75010;DHT22;63564;46.840;18.336;2023-04-25T08:45:15;13.95;67.14
75010;DHT22;63564;46.840;18.336;2023-04-25T08:48:16;14.26;67.32
75010;DHT22;63564;46.840;18.336;2023-04-25T08:51:22;14.65;64.22
75010;DHT22;63564;46.840;18.336;2023-04-25T08:54:27;14.55;62.98
75010;DHT22;63564;46.840;18.336;2023-04-25T08:57:29;14.88;63.62
75010;DHT22;63564;46.840;18.336;2023-04-25T09:00:30;14.88;65.55
75010;DHT22;63564;46.840;18.336;2023-04-25T09:03:31;15.11;63.47
75010;DHT22;63564;46.840;18.336;2023-04-25T09:06:32;14.72;64.79
75010;DHT22;63564;46.840;18.336;2023-04-25T09:09:34;14.76;64.07
75010;DHT22;63564;46.840;18.336;2023-04-25T09:12:36;14.09;65.01
75010;DHT22;63564;46.840;18.336;2023-04-25T09:16:03;14.43;66.58
75010;DHT22;63564;46.840;18.336;2023-04-25T09:19:03;14.42;66.68
75010;DHT22;63564;46.840;18.336;2023-04-25T09:22:04;15.32;62.20
75010;DHT22;63564;46.840;18.336;2023-04-25T09:25:09;15.14;62.68
75010;DHT22;63564;46.840;18.336;2023-04-25T09:28:10;14.63;64.30
75010;DHT22;63564;46.840;18.336;2023-04-25T09:31:11;14.25;64.36
75010;DHT22;63564;46.840;18.336;2023-04-25T09:34:11;14.97;62.81
75010;DHT22;63564;46.840;18.336;2023-04-25T09:37:27;15.10;62.79
75010;DHT22;63564;46.840;18.336;2023-04-25T09:40:30;15.41;62.98
75010;DHT22;63564;46.840;18.336;2023-04-25T09:43:30;15.27;62.29
75010;DHT22;63564;46.840;18.336;2023-04-25T09:46:35;15.62;58.81
75010;DHT22;63564;46.840;18.336;2023-04-25T09:49:39;15.82;60.86
75010;DHT22;63564;46.840;18.336;2023-04-25T09:52:44;15.36;59.37
75010;DHT22;63564;46.840;18.336;2023-04-25T09:55:45;14.86;60.03
75010;DHT22;63564;46.840;18.336;2023-04-25T09:58:47;15.17;62.01
75010;DHT22;63564;46.840;18.336;2023-04-25T10:01:48;15.51;59.13
75010;DHT22;63564;46.840;18.336;2023-04-25T10:04:53;15.17;59.55
75010;DHT22;63564;46.840;18.336;2023-04-25T10:07:59;15.45;59.59
75010;DHT22;63564;46.840;18.336;2023-04-25T10:11:07;15.41;58.29
75010;DHT22;63564;46.840;18.336;2023-04-25T10:14:08;15.04;59.83
75010;DHT22;63564;46.840;18.336;2023-04-25T10:17:10;14.86;57.81
75010;DHT22;63564;46.840;18.336;2023-04-25T10:20:12;14.80;59.53
75010;DHT22;63564;46.840;18.336;2023-04-25T10:23:13;15.48;56.66
75010;DHT22;63564;46.840;18.336;2023-04-25T10:26:15;15.67;58.86
75010;DHT22;63564;46.840;18.336;2023-04-25T10:29:25;15.87;56.40
75010;DHT22;63564;46.840;18.336;2023-04-25T10:32:25;16.13;56.50
75010;DHT22;63564;46.840;18.336;2023-04-25T10:35:29;15.79;55.60
75010;DHT22;63564;46.840;18.336;2023-04-25T10:38:30;15.85;53.79
75010;DHT22;63564;46.840;18.336;2023-04-25T10:41:31;15.99;51.87
75010;DHT22;63564;46.840;18.336;2023-04-25T10:44:31;16.51;51.19
75010;DHT22;63564;46.840;18.336;2023-04-25T10:47:36;16.22;51.17
75010;DHT22;63564;46.840;18.336;2023-04-25T10:50:38;16.49;50.59
75010;DHT22;63564;46.840;18.336;2023-04-25T10:53:39;16.79;49.76
75010;DHT22;63564;46.840;18.336;2023-04-25T10:56:41;16.29;51.59
75010;DHT22;63564;46.840;18.336;2023-04-25T10:59:44;16.76;54.48
75010;DHT22;63564;46.840;18.336;2023-04-25T11:02:58;16.52;52.50
75010;DHT22;63564;46.840;18.336;2023-04-25T11:06:00;17.52;49.62
75010;DHT22;63564;46.840;18.336;2023-04-25T11:09:02;17.14;49.92
75010;DHT22;63564;46.840;18.336;2023-04-25T11:12:03;16.21;48.44
75010;DHT22;63564;46.840;18.336;2023-04-25T11:15:05;15.87;51.04
75010;DHT22;63564;46.840;18.336;2023-04-25T11:18:05;16.10;52.31
75010;DHT22;63564;46.840;18.336;2023-04-25T11:21:06;15.52;53.73
75010;DHT22;63564;46.840;18.336;2023-04-25T11:24:06;16.00;49.91
75010;DHT22;63564;46.840;18.336;2023-04-25T11:27:07;16.86;49.44
75010;DHT22;63564;46.840;18.336;2023-04-25T11:30:13;16.08;51.04
75010;DHT22;63564;46.840;18.336;2023-04-25T11:33:13;15.83;51.80
75010;DHT22;63564;46.840;18.336;2023-04-25T11:36:14;16.16;50.98
75010;DHT22;63564;46.840;18.336;2023-04-25T11:39:15;16.42;50.44
75010;DHT22;63564;46.840;18.336;2023-04-25T11:42:15;16.72;50.77
75010;DHT22;63564;46.840;18.336;2023-04-25T11:45:16;16.73;50.58
75010;DHT22;63564;46.840;18.336;2023-04-25T11:48:17;16.49;50.51
75010;DHT22;63564;46.840;18.336;2023-04-25T11:51:17;16.69;48.89
75010;DHT22;63564;46.840;18.336;2023-04-25T11:54:17;16.48;50.31
75010;DHT22;63564;46.840;18.336;2023-04-25T11:57:21;16.16;48.08
75010;DHT22;63564;46.840;18.336;2023-04-25T12:00:22;16.16;47.85
75010;DHT22;63564;46.840;18.336;2023-04-25T12:03:23;17.00;48.32
75010;DHT22;63564;46.840;18.336;2023-04-25T12:06:28;17.02;46.41
75010;DHT22;63564;46.840;18.336;2023-04-25T12:09:32;17.71;44.39
75010;DHT22;63564;46.840;18.336;2023-04-25T12:12:34;18.26;43.85
75010;DHT22;63564;46.840;18.336;2023-04-25T12:15:35;17.90;44.99
75010;DHT22;63564;46.840;18.336;2023-04-25T12:18:35;17.34;47.65
75010;DHT22;63564;46.840;18.336;2023-04-25T12:21:36;17.93;45.32
75010;DHT22;63564;46.840;18.336;2023-04-25T12:24:36;18.37;46.76
75010;DHT22;63564;46.840;18.336;2023-04-25T12:27:37;18.20;43.94
75010;DHT22;63564;46.840;18.336;2023-04-25T12:34:00;18.24;42.41
75010;DHT22;63564;46.840;18.336;2023-04-25T12:37:01;18.68;41.81
75010;DHT22;63564;46.840;18.336;2023-04-25T12:40:01;18.33;40.97
75010;DHT22;63564;46.840;18.336;2023-04-25T12:43:01;18.65;43.73
75010;DHT22;63564;46.840;18.336;2023-04-25T12:46:02;18.57;43.22
75010;DHT22;63564;46.840;18.336;2023-04-25T12:49:04;19.00;42.91
75010;DHT22;63564;46.840;18.336;2023-04-25T12:52:04;18.91;43.07
75010;DHT22;63564;46.840;18.336;2023-04-25T12:55:05;18.20;41.94
75010;DHT22;63564;46.840;18.336;2023-04-25T12:58:06;19.00;43.86
75010;DHT22;63564;46.840;18.336;2023-04-25T13:01:06;19.24;41.08
75010;DHT22;63564;46.840;18.336;2023-04-25T13:04:07;19.24;39.21
75010;DHT22;63564;46.840;18.336;2023-04-25T13:07:07;18.16;42.34
75010;DHT22;63564;46.840;18.336;2023-04-25T13:10:08;17.82;41.35
75010;DHT22;63564;46.840;18.336;2023-04-25T13:13:08;18.17;42.66
75010;DHT22;63564;46.840;18.336;2023-04-25T13:16:09;18.20;41.90
75010;DHT22;63564;46.840;18.336;2023-04-25T13:19:09;17.42;43.07
75010;DHT22;63564;46.840;18.336;2023-04-25T13:22:11;18.37;38.78
75010;DHT22;63564;46.840;18.336;2023-04-25T13:25:12;17.99;40.95
75010;DHT22;63564;46.840;18.336;2023-04-25T13:28:13;16.89;41.58
75010;DHT22;63564;46.840;18.336;2023-04-25T13:31:13;17.02;42.86
75010;DHT22;63564;46.840;18.336;2023-04-25T13:34:14;18.10;42.40
75010;DHT22;63564;46.840;18.336;2023-04-25T13:37:14;19.18;37.75
75010;DHT22;63564;46.840;18.336;2023-04-25T13:40:15;19.41;38.01
75010;DHT22;63564;46.840;18.336;2023-04-25T13:43:16;19.33;38.64
75010;DHT22;63564;46.840;18.336;2023-04-25T13:46:16;18.67;40.82
75010;DHT22;63564;46.840;18.336;2023-04-25T13:49:17;19.64;40.17
75010;DHT22;63564;46.840;18.336;2023-04-25T13:52:18;20.05;37.37
75010;DHT22;63564;46.840;18.336;2023-04-25T13:55:18;20.25;38.87
75010;DHT22;63564;46.840;18.336;2023-04-25T13:58:19;22.05;35.74
75010;DHT22;63564;46.840;18.336;2023-04-25T14:01:20;21.26;36.26
75010;DHT22;63564;46.840;18.336;2023-04-25T14:04:21;20.19;36.88
75010;DHT22;63564;46.840;18.336;2023-04-25T14:07:21;20.70;33.84
75010;DHT22;63564;46.840;18.336;2023-04-25T14:10:22;20.54;35.56
75010;DHT22;63564;46.840;18.336;2023-04-25T14:13:22;19.65;36.68
75010;DHT22;63564;46.840;18.336;2023-04-25T14:16:23;21.80;34.47
75010;DHT22;63564;46.840;18.336;2023-04-25T14:19:24;21.16;37.06
75010;DHT22;63564;46.840;18.336;2023-04-25T14:22:24;19.82;38.48
75010;DHT22;63564;46.840;18.336;2023-04-25T14:25:27;19.29;41.28
75010;DHT22;63564;46.840;18.336;2023-04-25T14:28:27;18.71;40.96
75010;DHT22;63564;46.840;18.336;2023-04-25T14:31:28;18.48;43.93
75010;DHT22;63564;46.840;18.336;2023-04-25T14:34:28;18.12;41.20
75010;DHT22;63564;46.840;18.336;2023-04-25T14:37:28;17.79;43.71
75010;DHT22;63564;46.840;18.336;2023-04-25T14:40:29;17.23;42.11
75010;DHT22;63564;46.840;18.336;2023-04-25T14:43:29;17.13;43.63
75010;DHT22;63564;46.840;18.336;2023-04-25T14:46:30;16.97;46.00
75010;DHT22;63564;46.840;18.336;2023-04-25T14:49:32;16.83;46.02
75010;DHT22;63564;46.840;18.336;2023-04-25T14:52:32;16.84;45.44
75010;DHT22;63564;46.840;18.336;2023-04-25T14:55:32;16.77;47.29
75010;DHT22;63564;46.840;18.336;2023-04-25T14:58:33;16.77;44.71
75010;DHT22;63564;46.840;18.336;2023-04-25T15:01:33;16.58;45.76
75010;DHT22;63564;46.840;18.336;2023-04-25T15:04:34;16.59;44.54
75010;DHT22;63564;46.840;18.336;2023-04-25T15:07:35;16.54;46.77
75010;DHT22;63564;46.840;18.336;2023-04-25T15:10:36;16.69;45.21
75010;DHT22;63564;46.840;18.336;2023-04-25T15:13:37;16.79;43.75
75010;DHT22;63564;46.840;18.336;2023-04-25T15:16:37;16.86;43.37
75010;DHT22;63564;46.840;18.336;2023-04-25T15:19:37;16.68;42.83
75010;DHT22;63564;46.840;18.336;2023-04-25T15:22:43;16.38;43.83
75010;DHT22;63564;46.840;18.336;2023-04-25T15:25:44;15.99;45.82
75010;DHT22;63564;46.840;18.336;2023-04-25T15:28:44;15.82;45.26
75010;DHT22;63564;46.840;18.336;2023-04-25T15:31:45;15.74;45.48
75010;DHT22;63564;46.840;18.336;2023-04-25T15:34:45;15.56;46.14
75010;DHT22;63564;46.840;18.336;2023-04-25T15:37:46;15.60;47.10
75010;DHT22;63564;46.840;18.336;2023-04-25T15:40:46;15.65;47.53
75010;DHT22;63564;46.840;18.336;2023-04-25T15:43:47;15.58;48.52
75010;DHT22;63564;46.840;18.336;2023-04-25T15:46:47;15.03;55.80
75010;DHT22;63564;46.840;18.336;2023-04-25T15:49:48;14.80;58.75
75010;DHT22;63564;46.840;18.336;2023-04-25T15:52:49;14.60;59.30
75010;DHT22;63564;46.840;18.336;2023-04-25T15:55:50;14.57;58.73
75010;DHT22;63564;46.840;18.336;2023-04-25T15:58:50;14.80;57.92
75010;DHT22;63564;46.840;18.336;2023-04-25T16:01:52;14.88;56.49
75010;DHT22;63564;46.840;18.336;2023-04-25T16:04:52;14.69;57.51
75010;DHT22;63564;46.840;18.336;2023-04-25T16:07:52;14.35;57.61
75010;DHT22;63564;46.840;18.336;2023-04-25T16:10:53;14.40;57.81
75010;DHT22;63564;46.840;18.336;2023-04-25T16:13:53;14.42;58.14
75010;DHT22;63564;46.840;18.336;2023-04-25T16:16:54;14.49;57.41
75010;DHT22;63564;46.840;18.336;2023-04-25T16:19:55;14.43;57.77
75010;DHT22;63564;46.840;18.336;2023-04-25T16:22:56;14.46;56.73
75010;DHT22;63564;46.840;18.336;2023-04-25T16:25:56;14.75;57.93
75010;DHT22;63564;46.840;18.336;2023-04-25T16:28:56;14.95;57.20
75010;DHT22;63564;46.840;18.336;2023-04-25T16:31:57;14.86;57.68
75010;DHT22;63564;46.840;18.336;2023-04-25T16:34:57;14.70;57.83
75010;DHT22;63564;46.840;18.336;2023-04-25T16:37:58;14.69;57.11
75010;DHT22;63564;46.840;18.336;2023-04-25T16:40:58;14.63;55.50
75010;DHT22;63564;46.840;18.336;2023-04-25T16:43:58;14.50;56.44
75010;DHT22;63564;46.840;18.336;2023-04-25T16:46:59;14.36;56.26
75010;DHT22;63564;46.840;18.336;2023-04-25T16:49:59;14.22;58.54
75010;DHT22;63564;46.840;18.336;2023-04-25T16:53:00;14.05;60.02
75010;DHT22;63564;46.840;18.336;2023-04-25T16:56:01;13.94;61.20
75010;DHT22;63564;46.840;18.336;2023-04-25T16:59:01;13.83;62.58
75010;DHT22;63564;46.840;18.336;2023-04-25T17:02:01;13.70;63.42
75010;DHT22;63564;46.840;18.336;2023-04-25T17:05:02;13.59;63.24
75010;DHT22;63564;46.840;18.336;2023-04-25T17:08:02;13.44;64.72
75010;DHT22;63564;46.840;18.336;2023-04-25T17:11:03;13.38;64.11
75010;DHT22;63564;46.840;18.336;2023-04-25T17:14:04;13.26;64.88
75010;DHT22;63564;46.840;18.336;2023-04-25T17:17:05;13.22;64.66
75010;DHT22;63564;46.840;18.336;2023-04-25T17:20:06;13.09;65.08
75010;DHT22;63564;46.840;18.336;2023-04-25T17:23:07;13.02;65.14
75010;DHT22;63564;46.840;18.336;2023-04-25T17:26:08;12.94;65.42
75010;DHT22;63564;46.840;18.336;2023-04-25T17:29:08;12.83;66.31
75010;DHT22;63564;46.840;18.336;2023-04-25T17:32:09;12.76;66.54
75010;DHT22;63564;46.840;18.336;2023-04-25T17:35:10;12.56;67.01
75010;DHT22;63564;46.840;18.336;2023-04-25T17:38:11;12.46;67.08
75010;DHT22;63564;46.840;18.336;2023-04-25T17:41:13;12.32;67.57
75010;DHT22;63564;46.840;18.336;2023-04-25T17:44:14;12.20;68.00
75010;DHT22;63564;46.840;18.336;2023-04-25T17:47:15;12.16;68.19
75010;DHT22;63564;46.840;18.336;2023-04-25T17:50:16;12.05;68.58
75010;DHT22;63564;46.840;18.336;2023-04-25T17:53:16;12.11;67.32
75010;DHT22;63564;46.840;18.336;2023-04-25T17:56:17;12.02;68.07
75010;DHT22;63564;46.840;18.336;2023-04-25T17:59:18;12.01;67.39
75010;DHT22;63564;46.840;18.336;2023-04-25T18:02:19;11.95;68.14
75010;DHT22;63564;46.840;18.336;2023-04-25T18:05:20;11.85;67.66
75010;DHT22;63564;46.840;18.336;2023-04-25T18:08:21;11.89;67.10
75010;DHT22;63564;46.840;18.336;2023-04-25T18:11:22;11.92;67.00
75010;DHT22;63564;46.840;18.336;2023-04-25T18:14:23;11.92;66.78
75010;DHT22;63564;46.840;18.336;2023-04-25T18:17:24;11.84;67.11
75010;DHT22;63564;46.840;18.336;2023-04-25T18:20:25;11.82;67.01
75010;DHT22;63564;46.840;18.336;2023-04-25T18:23:27;11.77;67.30
75010;DHT22;63564;46.840;18.336;2023-04-25T18:26:28;11.71;67.81
75010;DHT22;63564;46.840;18.336;2023-04-25T18:29:28;11.60;67.94
75010;DHT22;63564;46.840;18.336;2023-04-25T18:32:29;11.55;68.17
75010;DHT22;63564;46.840;18.336;2023-04-25T18:35:30;11.46;68.46
75010;DHT22;63564;46.840;18.336;2023-04-25T18:38:31;11.33;69.24
75010;DHT22;63564;46.840;18.336;2023-04-25T18:41:33;11.24;69.72
75010;DHT22;63564;46.840;18.336;2023-04-25T18:44:34;11.19;70.08
75010;DHT22;63564;46.840;18.336;2023-04-25T18:47:38;11.05;70.89